Time;durP1;ratioP1;P1;durP2;ratioP2;P2;SDS_P1;SDS_P2;PMS_P1;PMS_P2;Temp;Humidity;BMP_temperature;BMP_pressure;BME280_temperature;BME280_humidity;BME280_pressure;Samples;Min_cycle;Max_cycle;Signal;HPM_P1;HPM_P2
2022/03/26 00:01:16;;;;;;;;;;;3.80;99.90;;;;;;5075486;28;19912;-71
2022/03/26 00:03:41;;;;;;;;;;;3.80;99.90;;;;;;5075458;28;19911;-71
2022/03/26 00:06:07;;;;;;;;;;;3.70;99.90;;;;;;5075407;28;19987;-71
2022/03/26 00:08:32;;;;;;;;;;;3.60;99.90;;;;;;5075264;28;19909;-71
2022/03/26 00:10:58;;;;;;;;;;;3.40;99.90;;;;;;5074612;28;19912;-71
2022/03/26 00:13:23;;;;;;;;;;;3.30;99.90;;;;;;5074787;28;20421;-71
2022/03/26 00:15:49;;;;;;;;;;;3.20;99.90;;;;;;5075176;28;19904;-71
2022/03/26 00:18:17;;;;;;;;;;;3.20;99.90;;;;;;5075651;28;19909;-71
2022/03/26 00:20:43;;;;;;;;;;;3.20;99.90;;;;;;5075742;28;19905;-71
2022/03/26 00:23:09;;;;;;;;;;;3.30;99.90;;;;;;5073681;28;19904;-71
2022/03/26 00:25:34;;;;;;;;;;;3.30;99.90;;;;;;5074989;28;19904;-71
2022/03/26 00:28:00;;;;;;;;;;;3.30;99.90;;;;;;5074731;28;19998;-71
2022/03/26 00:30:25;;;;;;;;;;;3.30;99.90;;;;;;5074861;28;20007;-71
2022/03/26 00:32:51;;;;;;;;;;;3.30;99.90;;;;;;5075005;28;19905;-71
2022/03/26 00:35:16;;;;;;;;;;;3.30;99.90;;;;;;5074806;28;19904;-71
2022/03/26 00:37:42;;;;;;;;;;;3.30;99.90;;;;;;5074947;28;20034;-71
2022/03/26 00:40:08;;;;;;;;;;;3.30;99.90;;;;;;5074751;28;20311;-71
2022/03/26 00:42:33;;;;;;;;;;;3.30;99.90;;;;;;5074251;28;19949;-72
2022/03/26 00:44:59;;;;;;;;;;;3.30;99.90;;;;;;5074621;28;20398;-71
2022/03/26 00:47:24;;;;;;;;;;;3.30;99.90;;;;;;5074887;28;19944;-71
2022/03/26 00:49:51;;;;;;;;;;;3.10;99.90;;;;;;5074501;28;19915;-71
2022/03/26 00:52:16;;;;;;;;;;;3.00;99.90;;;;;;5074543;28;19904;-71
2022/03/26 00:54:42;;;;;;;;;;;2.90;99.90;;;;;;5074445;28;19927;-71
2022/03/26 00:57:07;;;;;;;;;;;2.90;99.90;;;;;;5074158;28;19908;-71
2022/03/26 00:59:33;;;;;;;;;;;2.90;99.90;;;;;;5074619;28;19904;-71
2022/03/26 01:01:58;;;;;;;;;;;3.00;99.90;;;;;;5089865;28;19999;-71
2022/03/26 01:04:24;;;;;;;;;;;3.00;99.90;;;;;;5074308;28;19991;-71
2022/03/26 01:06:50;;;;;;;;;;;3.00;99.90;;;;;;5074250;28;20268;-71
2022/03/26 01:09:15;;;;;;;;;;;3.00;99.90;;;;;;5074218;28;19947;-71
2022/03/26 01:11:41;;;;;;;;;;;3.00;99.90;;;;;;5073989;28;19944;-71
2022/03/26 01:14:06;;;;;;;;;;;3.00;99.90;;;;;;5073962;28;20379;-71
2022/03/26 01:16:32;;;;;;;;;;;3.00;99.90;;;;;;5074060;28;19905;-71
2022/03/26 01:18:58;;;;;;;;;;;3.00;99.90;;;;;;5074104;28;19911;-71
2022/03/26 01:21:24;;;;;;;;;;;3.00;99.90;;;;;;5073781;28;19943;-71
2022/03/26 01:23:49;;;;;;;;;;;3.00;99.90;;;;;;5074316;28;19904;-71
2022/03/26 01:26:15;;;;;;;;;;;3.00;99.90;;;;;;5072732;28;20283;-71
2022/03/26 01:28:41;;;;;;;;;;;2.90;99.90;;;;;;5073727;28;19911;-71
2022/03/26 01:31:07;;;;;;;;;;;2.90;99.90;;;;;;5072618;28;20318;-71
2022/03/26 01:33:32;;;;;;;;;;;2.80;99.90;;;;;;5074189;28;19905;-71
2022/03/26 01:35:58;;;;;;;;;;;2.80;99.90;;;;;;5073878;28;19904;-71
2022/03/26 01:38:23;;;;;;;;;;;2.80;99.90;;;;;;5074034;28;19999;-71
2022/03/26 01:40:49;;;;;;;;;;;2.80;99.90;;;;;;5073806;28;19910;-71
2022/03/26 01:43:15;;;;;;;;;;;2.80;99.90;;;;;;5073378;28;19904;-76
2022/03/26 01:45:40;;;;;;;;;;;2.80;99.90;;;;;;5073824;28;19955;-71
2022/03/26 01:48:06;;;;;;;;;;;2.80;99.90;;;;;;5072502;28;19911;-71
2022/03/26 01:50:32;;;;;;;;;;;2.70;99.90;;;;;;5089295;28;19904;-71
2022/03/26 01:52:58;;;;;;;;;;;2.60;99.90;;;;;;5073661;28;19911;-71
2022/03/26 01:55:24;;;;;;;;;;;2.60;99.90;;;;;;5073992;28;19904;-71
2022/03/26 01:57:50;;;;;;;;;;;2.60;99.90;;;;;;5073349;28;19913;-71
2022/03/26 02:00:16;;;;;;;;;;;2.60;99.90;;;;;;5073993;28;19911;-71
2022/03/26 02:02:43;;;;;;;;;;;2.50;99.90;;;;;;5073571;28;20356;-71
2022/03/26 02:05:12;;;;;;;;;;;2.40;99.90;;;;;;5073623;28;19904;-71
2022/03/26 02:07:39;;;;;;;;;;;2.30;99.90;;;;;;5073570;28;19911;-71
2022/03/26 02:10:06;;;;;;;;;;;2.20;99.90;;;;;;5073529;28;20386;-71
2022/03/26 02:12:32;;;;;;;;;;;2.30;99.90;;;;;;5072998;28;20007;-71
2022/03/26 02:14:57;;;;;;;;;;;2.30;99.90;;;;;;5073517;28;19948;-71
2022/03/26 02:17:23;;;;;;;;;;;2.30;99.90;;;;;;5073397;28;19909;-71
2022/03/26 02:19:49;;;;;;;;;;;2.20;99.90;;;;;;5073729;28;19904;-71
2022/03/26 02:22:15;;;;;;;;;;;2.30;99.90;;;;;;5073380;28;19953;-71
2022/03/26 02:24:40;;;;;;;;;;;2.30;99.90;;;;;;5073363;28;20256;-71
2022/03/26 02:27:06;;;;;;;;;;;2.30;99.90;;;;;;5073340;28;19911;-71
2022/03/26 02:29:32;;;;;;;;;;;2.20;99.90;;;;;;5073163;28;19912;-71
2022/03/26 02:31:57;;;;;;;;;;;2.20;99.90;;;;;;5073589;28;19904;-71
2022/03/26 02:34:24;;;;;;;;;;;2.10;99.90;;;;;;5076601;28;20288;-71
2022/03/26 02:36:53;;;;;;;;;;;2.10;99.90;;;;;;5077023;28;19916;-71
2022/03/26 02:39:19;;;;;;;;;;;2.10;99.90;;;;;;5076998;28;19904;-71
2022/03/26 02:41:44;;;;;;;;;;;2.10;99.90;;;;;;5076856;28;19911;-71
2022/03/26 02:44:10;;;;;;;;;;;2.00;99.90;;;;;;5076687;28;19970;-71
2022/03/26 02:46:36;;;;;;;;;;;2.10;99.90;;;;;;5075658;28;19965;-71
2022/03/26 02:49:02;;;;;;;;;;;2.10;99.90;;;;;;5077453;28;19904;-71
2022/03/26 02:51:27;;;;;;;;;;;2.10;99.90;;;;;;5077074;28;19911;-71
2022/03/26 02:53:53;;;;;;;;;;;2.10;99.90;;;;;;5076819;28;19904;-71
2022/03/26 02:56:19;;;;;;;;;;;2.10;99.90;;;;;;5076735;28;19954;-71
2022/03/26 02:58:46;;;;;;;;;;;2.10;99.90;;;;;;5076381;28;19908;-71
2022/03/26 03:01:13;;;;;;;;;;;2.10;99.90;;;;;;5076591;28;20276;-71
2022/03/26 03:03:38;;;;;;;;;;;2.00;99.90;;;;;;5075357;28;19905;-71
2022/03/26 03:06:04;;;;;;;;;;;2.00;99.90;;;;;;5076577;28;19909;-71
2022/03/26 03:08:29;;;;;;;;;;;2.00;99.90;;;;;;5076529;28;19905;-71
2022/03/26 03:10:55;;;;;;;;;;;2.00;99.90;;;;;;5076564;28;20330;-71
2022/03/26 03:13:22;;;;;;;;;;;2.00;99.90;;;;;;5076513;28;19916;-73
2022/03/26 03:15:50;;;;;;;;;;;2.00;99.90;;;;;;5076785;28;20371;-73
2022/03/26 03:18:16;;;;;;;;;;;2.00;99.90;;;;;;5076320;28;19908;-73
2022/03/26 03:20:42;;;;;;;;;;;2.00;99.90;;;;;;5076728;28;19927;-73
2022/03/26 03:23:08;;;;;;;;;;;2.00;99.90;;;;;;5076225;28;19904;-73
2022/03/26 03:25:33;;;;;;;;;;;1.90;99.90;;;;;;5076199;28;19911;-73
2022/03/26 03:27:59;;;;;;;;;;;1.90;99.90;;;;;;5075967;28;19912;-73
2022/03/26 03:30:25;;;;;;;;;;;1.90;99.90;;;;;;5074879;28;19912;-73
2022/03/26 03:32:51;;;;;;;;;;;1.80;99.90;;;;;;5076045;28;19986;-73
2022/03/26 03:35:17;;;;;;;;;;;1.80;99.90;;;;;;5076061;28;19905;-73
2022/03/26 03:37:42;;;;;;;;;;;1.80;99.90;;;;;;5075916;28;19916;-73
2022/03/26 03:40:08;;;;;;;;;;;1.80;99.90;;;;;;5075942;28;19928;-73
2022/03/26 03:42:34;;;;;;;;;;;1.70;99.90;;;;;;5075615;28;19904;-73
2022/03/26 03:45:00;;;;;;;;;;;1.70;99.90;;;;;;5075800;28;19974;-73
2022/03/26 03:47:25;;;;;;;;;;;1.70;99.90;;;;;;5076115;28;19954;-73
2022/03/26 03:49:51;;;;;;;;;;;1.70;99.90;;;;;;5076098;28;19992;-73
2022/03/26 03:52:17;;;;;;;;;;;1.70;99.90;;;;;;5091334;28;19935;-73
2022/03/26 03:54:43;;;;;;;;;;;1.70;99.90;;;;;;5074435;28;20253;-73
2022/03/26 03:57:08;;;;;;;;;;;1.70;99.90;;;;;;5076180;28;19958;-73
2022/03/26 03:59:34;;;;;;;;;;;1.60;99.90;;;;;;5075375;28;20436;-73
2022/03/26 04:01:59;;;;;;;;;;;1.60;99.90;;;;;;5075477;28;20007;-73
2022/03/26 04:04:25;;;;;;;;;;;1.60;99.90;;;;;;5075466;28;19904;-73
2022/03/26 04:06:51;;;;;;;;;;;1.60;99.90;;;;;;5075417;28;19904;-73
2022/03/26 04:09:16;;;;;;;;;;;1.60;99.90;;;;;;5075377;28;19997;-73
2022/03/26 04:11:42;;;;;;;;;;;1.60;99.90;;;;;;5090952;28;19909;-73
2022/03/26 04:14:07;;;;;;;;;;;1.50;99.90;;;;;;5075177;28;19970;-73
2022/03/26 04:16:33;;;;;;;;;;;1.50;99.90;;;;;;5075154;28;19927;-73
2022/03/26 04:18:58;;;;;;;;;;;1.50;99.90;;;;;;5075206;28;20261;-73
2022/03/26 04:21:25;;;;;;;;;;;1.50;99.90;;;;;;5075089;28;19931;-73
2022/03/26 04:23:51;;;;;;;;;;;1.50;99.90;;;;;;5075401;28;19908;-73
2022/03/26 04:26:17;;;;;;;;;;;1.40;99.90;;;;;;5075591;28;19911;-73
2022/03/26 04:28:42;;;;;;;;;;;1.40;99.90;;;;;;5074930;28;19948;-73
2022/03/26 04:31:08;;;;;;;;;;;1.40;99.90;;;;;;5074819;28;20331;-73
2022/03/26 04:33:33;;;;;;;;;;;1.30;99.90;;;;;;5074903;28;19959;-73
2022/03/26 04:35:59;;;;;;;;;;;1.30;99.90;;;;;;5074823;28;20296;-73
2022/03/26 04:38:24;;;;;;;;;;;1.30;99.90;;;;;;5074716;28;19912;-73
2022/03/26 04:40:50;;;;;;;;;;;1.20;99.90;;;;;;5074767;28;19908;-73
2022/03/26 04:43:16;;;;;;;;;;;1.10;99.90;;;;;;5074367;28;20136;-73
2022/03/26 04:45:42;;;;;;;;;;;1.00;99.90;;;;;;5074959;28;19904;-73
2022/03/26 04:48:07;;;;;;;;;;;1.00;99.90;;;;;;5074641;28;19912;-73
2022/03/26 04:50:33;;;;;;;;;;;0.90;99.90;;;;;;5074615;28;19904;-73
2022/03/26 04:52:59;;;;;;;;;;;0.90;99.90;;;;;;5074466;28;19904;-73
2022/03/26 04:55:24;;;;;;;;;;;1.00;99.90;;;;;;5073972;28;19911;-73
2022/03/26 04:57:51;;;;;;;;;;;1.00;99.90;;;;;;5074202;28;19920;-73
2022/03/26 05:00:17;;;;;;;;;;;0.90;99.90;;;;;;5074386;28;19912;-74
2022/03/26 05:02:43;;;;;;;;;;;0.90;99.90;;;;;;5074276;28;19904;-73
2022/03/26 05:05:10;;;;;;;;;;;0.90;99.90;;;;;;5074327;28;20416;-73
2022/03/26 05:07:48;;;;;;;;;;;0.90;99.90;;;;;;5074818;28;19940;-73
2022/03/26 05:10:17;;;;;;;;;;;0.80;99.90;;;;;;5073022;28;19910;-74
2022/03/26 05:12:43;;;;;;;;;;;0.70;99.90;;;;;;5074020;28;19918;-74
2022/03/26 05:15:09;;;;;;;;;;;0.70;99.90;;;;;;5074026;28;20390;-74
2022/03/26 05:17:36;;;;;;;;;;;0.70;99.90;;;;;;5074344;28;19943;-74
2022/03/26 05:20:01;;;;;;;;;;;0.70;99.90;;;;;;5074372;28;19935;-74
2022/03/26 05:22:28;;;;;;;;;;;0.70;99.90;;;;;;5074036;28;19912;-73
2022/03/26 05:24:54;;;;;;;;;;;0.80;99.90;;;;;;5074404;28;20299;-73
2022/03/26 05:27:19;;;;;;;;;;;0.80;99.90;;;;;;5072736;28;19904;-74
2022/03/26 05:29:46;;;;;;;;;;;0.80;99.90;;;;;;5073772;28;20367;-73
2022/03/26 05:32:15;;;;;;;;;;;0.70;99.90;;;;;;5073886;28;20423;-73
2022/03/26 05:34:41;;;;;;;;;;;0.70;99.90;;;;;;5074179;28;20375;-74
2022/03/26 05:37:06;;;;;;;;;;;0.80;99.90;;;;;;5073821;28;19947;-73
2022/03/26 05:39:32;;;;;;;;;;;0.80;99.90;;;;;;5074415;28;19985;-73
2022/03/26 05:41:58;;;;;;;;;;;0.80;99.90;;;;;;5073660;28;20373;-73
2022/03/26 05:44:23;;;;;;;;;;;0.80;99.90;;;;;;5073605;28;20386;-73
2022/03/26 05:46:49;;;;;;;;;;;0.70;99.90;;;;;;5073803;28;19905;-73
2022/03/26 05:49:16;;;;;;;;;;;0.70;99.90;;;;;;5074046;28;19904;-73
2022/03/26 05:51:42;;;;;;;;;;;0.60;99.90;;;;;;5073715;28;19931;-73
2022/03/26 05:54:07;;;;;;;;;;;0.50;99.90;;;;;;5074295;28;19905;-74
2022/03/26 05:56:36;;;;;;;;;;;0.50;99.90;;;;;;5073977;28;19966;-73
2022/03/26 05:59:05;;;;;;;;;;;0.50;99.90;;;;;;5073476;28;19908;-73
2022/03/26 06:01:31;;;;;;;;;;;0.50;99.90;;;;;;5074029;28;19966;-74
2022/03/26 06:03:56;;;;;;;;;;;0.50;99.90;;;;;;5073692;28;20356;-74
2022/03/26 06:06:22;;;;;;;;;;;0.60;99.90;;;;;;5073928;28;19959;-74
2022/03/26 06:08:47;;;;;;;;;;;0.60;99.90;;;;;;5076185;28;19939;-74
2022/03/26 06:11:13;;;;;;;;;;;0.70;99.90;;;;;;5077755;28;19912;-74
2022/03/26 06:13:38;;;;;;;;;;;0.70;99.90;;;;;;5077575;28;19913;-74
2022/03/26 06:16:04;;;;;;;;;;;0.80;99.90;;;;;;5077554;28;19995;-74
2022/03/26 06:18:30;;;;;;;;;;;0.80;99.90;;;;;;5077377;28;19916;-74
2022/03/26 06:20:56;;;;;;;;;;;0.80;99.90;;;;;;5077742;28;19966;-74
2022/03/26 06:23:22;;;;;;;;;;;0.90;99.90;;;;;;5077348;28;19912;-74
2022/03/26 06:25:48;;;;;;;;;;;0.90;99.90;;;;;;5077327;28;19904;-74
2022/03/26 06:28:19;;;;;;;;;;;1.00;99.90;;;;;;5077076;28;19913;-73
2022/03/26 06:30:47;;;;;;;;;;;1.10;99.90;;;;;;5077255;28;19911;-74
2022/03/26 06:33:15;;;;;;;;;;;1.10;99.90;;;;;;5077133;28;19905;-73
2022/03/26 06:35:44;;;;;;;;;;;1.20;99.90;;;;;;5077189;28;19915;-74
2022/03/26 06:38:10;;;;;;;;;;;1.20;99.90;;;;;;5076997;28;19915;-73
2022/03/26 06:40:37;;;;;;;;;;;1.30;99.90;;;;;;5077073;28;19954;-74
2022/03/26 06:43:03;;;;;;;;;;;1.40;99.90;;;;;;5076949;28;19904;-73
2022/03/26 06:45:28;;;;;;;;;;;1.40;99.90;;;;;;5077568;28;19904;-74
2022/03/26 06:47:54;;;;;;;;;;;1.40;99.90;;;;;;5077193;28;19995;-74
2022/03/26 06:50:19;;;;;;;;;;;1.50;99.90;;;;;;5076816;28;19904;-74
2022/03/26 06:52:45;;;;;;;;;;;1.60;99.90;;;;;;5076703;28;19994;-74
2022/03/26 06:55:11;;;;;;;;;;;1.60;99.90;;;;;;5076700;28;19908;-74
2022/03/26 06:57:37;;;;;;;;;;;1.70;99.90;;;;;;5075244;28;20003;-74
2022/03/26 07:00:03;;;;;;;;;;;1.70;99.90;;;;;;5076326;28;19911;-74
2022/03/26 07:02:29;;;;;;;;;;;1.80;99.90;;;;;;5076475;28;19936;-74
2022/03/26 07:04:55;;;;;;;;;;;1.80;99.90;;;;;;5076572;28;19904;-74
2022/03/26 07:07:21;;;;;;;;;;;1.80;99.90;;;;;;5076431;28;19953;-74
2022/03/26 07:09:46;;;;;;;;;;;1.90;99.90;;;;;;5076777;28;19951;-74
2022/03/26 07:12:12;;;;;;;;;;;2.00;99.90;;;;;;5076327;28;20001;-73
2022/03/26 07:14:38;;;;;;;;;;;2.00;99.90;;;;;;5074857;28;19904;-72
2022/03/26 07:17:03;;;;;;;;;;;2.10;99.90;;;;;;5076320;28;19908;-72
2022/03/26 07:19:29;;;;;;;;;;;2.30;99.90;;;;;;5075881;28;19905;-72
2022/03/26 07:21:55;;;;;;;;;;;2.30;99.90;;;;;;5091816;28;19908;-72
2022/03/26 07:24:20;;;;;;;;;;;2.40;99.90;;;;;;5076196;28;19913;-72
2022/03/26 07:26:46;;;;;;;;;;;2.50;99.90;;;;;;5076179;28;20373;-72
2022/03/26 07:29:12;;;;;;;;;;;2.60;99.90;;;;;;5075926;28;19905;-72
2022/03/26 07:31:37;;;;;;;;;;;2.70;99.90;;;;;;5076042;28;19908;-72
2022/03/26 07:34:03;;;;;;;;;;;2.80;99.90;;;;;;5076028;28;19904;-73
2022/03/26 07:36:28;;;;;;;;;;;2.90;99.90;;;;;;5076225;28;19905;-73
2022/03/26 07:38:54;;;;;;;;;;;3.00;99.90;;;;;;5076220;28;20327;-73
2022/03/26 07:41:21;;;;;;;;;;;3.20;99.90;;;;;;5075788;28;19950;-72
2022/03/26 07:43:47;;;;;;;;;;;3.30;99.90;;;;;;5075634;28;19999;-72
2022/03/26 07:46:14;;;;;;;;;;;3.40;99.90;;;;;;5075879;28;19940;-72
2022/03/26 07:48:39;;;;;;;;;;;3.60;99.90;;;;;;5075847;28;19911;-72
2022/03/26 07:51:05;;;;;;;;;;;3.80;99.90;;;;;;5075667;28;19905;-72
2022/03/26 07:53:30;;;;;;;;;;;3.90;99.90;;;;;;5075991;28;19915;-72
2022/03/26 07:55:57;;;;;;;;;;;4.10;99.90;;;;;;5075649;28;19971;-72
2022/03/26 07:58:22;;;;;;;;;;;4.30;99.90;;;;;;5075278;28;19916;-72
2022/03/26 08:00:49;;;;;;;;;;;4.40;99.90;;;;;;5075545;28;19904;-72
2022/03/26 08:03:14;;;;;;;;;;;4.60;99.90;;;;;;5091074;28;19950;-72
2022/03/26 08:05:40;;;;;;;;;;;4.80;99.90;;;;;;5075533;28;20099;-72
2022/03/26 08:08:06;;;;;;;;;;;4.90;99.90;;;;;;5075729;28;19904;-72
2022/03/26 08:10:32;;;;;;;;;;;5.00;99.90;;;;;;5075350;28;19904;-72
2022/03/26 08:12:57;;;;;;;;;;;5.20;99.90;;;;;;5075099;28;20304;-73
2022/03/26 08:15:23;;;;;;;;;;;5.30;99.90;;;;;;5075142;28;19942;-72
2022/03/26 08:17:48;;;;;;;;;;;5.40;99.90;;;;;;5075386;28;20011;-72
2022/03/26 08:20:14;;;;;;;;;;;5.60;99.90;;;;;;5075124;28;19944;-73
2022/03/26 08:22:41;;;;;;;;;;;5.70;99.90;;;;;;5075033;28;19959;-73
2022/03/26 08:25:09;;;;;;;;;;;5.80;99.90;;;;;;5075387;28;20268;-73
2022/03/26 08:27:38;;;;;;;;;;;6.00;99.90;;;;;;5075042;28;19904;-73
2022/03/26 08:30:04;;;;;;;;;;;6.20;99.90;;;;;;5074169;28;19912;-74
2022/03/26 08:32:30;;;;;;;;;;;6.30;99.90;;;;;;5074732;28;20038;-73
2022/03/26 08:34:55;;;;;;;;;;;6.50;99.90;;;;;;5074881;28;19991;-73
2022/03/26 08:37:21;;;;;;;;;;;6.60;99.90;;;;;;5074783;28;20276;-73
2022/03/26 08:39:46;;;;;;;;;;;6.70;99.90;;;;;;5075103;28;20287;-73
2022/03/26 08:42:12;;;;;;;;;;;6.90;99.90;;;;;;5074933;28;19911;-73
2022/03/26 08:44:37;;;;;;;;;;;7.10;99.90;;;;;;5074479;28;20336;-72
2022/03/26 08:47:05;;;;;;;;;;;7.20;99.90;;;;;;5074894;28;19911;-74
2022/03/26 08:49:32;;;;;;;;;;;7.40;99.90;;;;;;5074930;28;19915;-73
2022/03/26 08:51:57;;;;;;;;;;;7.50;99.90;;;;;;5074773;28;19911;-73
2022/03/26 08:54:23;;;;;;;;;;;7.60;98.40;;;;;;5073263;28;19995;-73
2022/03/26 08:56:49;;;;;;;;;;;7.70;98.10;;;;;;5074478;28;20410;-73
2022/03/26 08:59:14;;;;;;;;;;;7.90;97.10;;;;;;5074191;28;19904;-73
2022/03/26 09:01:40;;;;;;;;;;;8.00;96.70;;;;;;5074379;28;20396;-73
2022/03/26 09:04:06;;;;;;;;;;;8.20;96.20;;;;;;5074447;28;20324;-73
2022/03/26 09:06:31;;;;;;;;;;;8.30;95.80;;;;;;5074407;28;19908;-73
2022/03/26 09:08:58;;;;;;;;;;;8.40;94.80;;;;;;5074557;28;19995;-72
2022/03/26 09:11:24;;;;;;;;;;;8.50;92.80;;;;;;5074168;28;19908;-73
2022/03/26 09:13:49;;;;;;;;;;;8.70;92.60;;;;;;5080932;22;19928;-80
2022/03/26 09:16:15;;;;;;;;;;;8.80;92.30;;;;;;5053714;28;19905;-80
2022/03/26 09:18:40;;;;;;;;;;;9.00;91.80;;;;;;5054246;28;19920;-81
2022/03/26 09:21:07;;;;;;;;;;;9.10;90.80;;;;;;5057658;28;19909;-80
2022/03/26 09:23:33;;;;;;;;;;;9.40;90.60;;;;;;5069834;28;19905;-81
2022/03/26 09:26:00;;;;;;;;;;;9.50;90.40;;;;;;5083237;22;19928;-72
2022/03/26 09:28:25;;;;;;;;;;;9.70;89.80;;;;;;5034104;28;19944;-73
2022/03/26 09:30:51;;;;;;;;;;;9.80;87.40;;;;;;5033860;28;20019;-72
2022/03/26 09:33:17;;;;;;;;;;;10.00;87.50;;;;;;5032681;28;19905;-71
2022/03/26 09:35:42;;;;;;;;;;;10.10;85.80;;;;;;5033980;28;19905;-72
2022/03/26 09:38:08;;;;;;;;;;;10.20;85.10;;;;;;5033932;28;19996;-71
2022/03/26 09:40:34;;;;;;;;;;;10.40;83.60;;;;;;5034255;28;20366;-72
2022/03/26 09:43:01;;;;;;;;;;;10.60;81.30;;;;;;5033661;28;19912;-71
2022/03/26 09:45:26;;;;;;;;;;;10.70;78.90;;;;;;5033677;28;19966;-71
2022/03/26 09:47:52;;;;;;;;;;;10.80;79.70;;;;;;5033881;28;20360;-72
2022/03/26 09:50:19;;;;;;;;;;;10.90;79.00;;;;;;5033844;28;20288;-72
2022/03/26 09:52:45;;;;;;;;;;;11.10;77.90;;;;;;5034364;28;19952;-72
2022/03/26 09:55:13;;;;;;;;;;;11.30;76.10;;;;;;5033815;28;19945;-71
2022/03/26 09:57:39;;;;;;;;;;;11.40;75.70;;;;;;5049075;28;20003;-71
2022/03/26 10:00:06;;;;;;;;;;;11.50;71.50;;;;;;5033546;28;20340;-71
2022/03/26 10:02:31;;;;;;;;;;;11.70;70.60;;;;;;5033726;28;19912;-71
2022/03/26 10:04:57;;;;;;;;;;;11.80;68.80;;;;;;5033694;28;19995;-73
2022/03/26 10:07:29;;;;;;;;;;;11.90;69.50;;;;;;5033688;28;19991;-71
2022/03/26 10:09:55;;;;;;;;;;;12.00;68.80;;;;;;5033702;28;19912;-70
2022/03/26 10:12:22;;;;;;;;;;;12.20;68.90;;;;;;5033493;28;19905;-70
2022/03/26 10:14:50;;;;;;;;;;;12.30;68.50;;;;;;5033581;28;19940;-70
2022/03/26 10:17:17;;;;;;;;;;;12.40;69.30;;;;;;5034039;28;19909;-70
2022/03/26 10:19:53;;;;;;;;;;;12.60;69.40;;;;;;5048863;28;19905;-70
2022/03/26 10:22:26;;;;;;;;;;;12.70;70.80;;;;;;5048874;28;19905;-70
2022/03/26 10:24:52;;;;;;;;;;;12.80;69.20;;;;;;5033965;28;19905;-70
2022/03/26 10:27:17;;;;;;;;;;;13.00;67.80;;;;;;5033389;28;19919;-70
2022/03/26 10:29:54;;;;;;;;;;;13.00;66.80;;;;;;5033593;28;19908;-70
2022/03/26 10:35:27;;;;;;;;;;;13.30;65.80;;;;;;5031492;28;20313;-70
2022/03/26 10:37:56;;;;;;;;;;;13.50;65.70;;;;;;5031545;28;20008;-70
2022/03/26 10:40:27;;;;;;;;;;;13.70;65.10;;;;;;5032299;28;19909;-70
2022/03/26 10:42:54;;;;;;;;;;;13.80;63.30;;;;;;5033259;28;19905;-70
2022/03/26 10:45:20;;;;;;;;;;;14.00;61.80;;;;;;5033215;28;19905;-70
2022/03/26 10:47:47;;;;;;;;;;;14.00;62.50;;;;;;5048660;28;19905;-71
2022/03/26 10:50:13;;;;;;;;;;;14.10;60.60;;;;;;5033300;28;20396;-70
2022/03/26 10:52:39;;;;;;;;;;;14.30;60.50;;;;;;5033205;28;19909;-72
2022/03/26 10:55:12;;;;;;;;;;;14.40;59.40;;;;;;5035961;28;20377;-71
2022/03/26 10:57:38;;;;;;;;;;;14.50;58.30;;;;;;5036758;28;19917;-71
2022/03/26 11:00:04;;;;;;;;;;;14.70;58.50;;;;;;5036530;28;19916;-71
2022/03/26 11:02:30;;;;;;;;;;;14.80;57.00;;;;;;5036925;28;19958;-72
2022/03/26 11:04:56;;;;;;;;;;;14.90;55.80;;;;;;5037041;28;19905;-72
2022/03/26 11:07:23;;;;;;;;;;;14.90;57.90;;;;;;5036633;28;19905;-71
2022/03/26 11:09:49;;;;;;;;;;;15.10;57.20;;;;;;5036893;28;19909;-72
2022/03/26 11:12:17;;;;;;;;;;;15.10;55.90;;;;;;5036789;28;19905;-72
2022/03/26 11:14:43;;;;;;;;;;;15.30;53.70;;;;;;5035028;28;19932;-71
2022/03/26 11:17:15;;;;;;;;;;;15.30;51.60;;;;;;5037021;28;20280;-72
2022/03/26 11:19:46;;;;;;;;;;;15.20;50.50;;;;;;5051811;28;19912;-72
2022/03/26 11:22:12;;;;;;;;;;;15.30;50.50;;;;;;5036343;28;19905;-72
2022/03/26 11:24:56;;;;;;;;;;;15.40;51.30;;;;;;5036427;28;20372;-72
2022/03/26 11:27:22;;;;;;;;;;;15.50;51.70;;;;;;5036303;28;20004;-72
2022/03/26 11:30:11;;;;;;;;;;;15.70;49.20;;;;;;5036058;28;20368;-71
2022/03/26 11:32:43;;;;;;;;;;;15.80;50.00;;;;;;5036662;28;20307;-71
2022/03/26 11:35:14;;;;;;;;;;;15.90;50.00;;;;;;5036781;28;19960;-71
2022/03/26 11:37:58;;;;;;;;;;;16.00;49.10;;;;;;5051359;28;20422;-71
2022/03/26 11:40:39;;;;;;;;;;;16.00;48.80;;;;;;5036035;28;19912;-72
2022/03/26 11:43:04;;;;;;;;;;;16.10;47.80;;;;;;5051211;28;19905;-71
2022/03/26 11:51:24;;;;;;;;;;;16.40;45.60;;;;;;5036173;28;19912;-71
2022/03/26 11:54:04;;;;;;;;;;;16.50;47.40;;;;;;5051132;28;19905;-72
2022/03/26 11:56:31;;;;;;;;;;;16.50;45.60;;;;;;5033636;28;19956;-71
2022/03/26 11:59:06;;;;;;;;;;;16.70;47.10;;;;;;5033937;28;20304;-71
2022/03/26 12:01:38;;;;;;;;;;;16.70;45.10;;;;;;5032840;28;19909;-71
2022/03/26 12:04:15;;;;;;;;;;;16.80;43.80;;;;;;5032306;28;19909;-71
2022/03/26 12:06:44;;;;;;;;;;;16.80;44.70;;;;;;5032552;28;20407;-71
2022/03/26 12:09:11;;;;;;;;;;;16.90;43.90;;;;;;5033752;28;19989;-70
2022/03/26 12:11:37;;;;;;;;;;;17.00;44.90;;;;;;5033612;28;20272;-71
2022/03/26 12:14:02;;;;;;;;;;;17.10;43.40;;;;;;5048885;28;19915;-71
2022/03/26 12:16:46;;;;;;;;;;;17.20;41.70;;;;;;5034227;28;19911;-71
2022/03/26 12:19:32;;;;;;;;;;;17.20;42.40;;;;;;5035558;28;19908;-71
2022/03/26 12:21:57;;;;;;;;;;;17.30;43.90;;;;;;5035138;28;19948;-71
2022/03/26 12:24:28;;;;;;;;;;;17.40;42.20;;;;;;5035131;28;19909;-71
2022/03/26 12:26:54;;;;;;;;;;;17.40;41.20;;;;;;5035123;28;19917;-71
2022/03/26 12:29:20;;;;;;;;;;;17.40;41.10;;;;;;5050254;28;19962;-71
2022/03/26 12:31:49;;;;;;;;;;;17.40;39.90;;;;;;5035133;28;20000;-71
2022/03/26 12:34:15;;;;;;;;;;;17.40;39.30;;;;;;5035272;28;19949;-71
2022/03/26 12:36:41;;;;;;;;;;;17.60;39.00;;;;;;5050303;28;19909;-71
2022/03/26 12:39:07;;;;;;;;;;;17.70;41.40;;;;;;5034842;28;19916;-71
2022/03/26 12:41:33;;;;;;;;;;;17.80;39.50;;;;;;5035360;28;19912;-70
2022/03/26 12:43:59;;;;;;;;;;;17.80;38.10;;;;;;5034808;28;20288;-71
2022/03/26 12:46:35;;;;;;;;;;;17.70;39.80;;;;;;5034592;28;19912;-70
2022/03/26 12:49:07;;;;;;;;;;;17.80;40.10;;;;;;5035731;28;20265;-70
2022/03/26 12:51:32;;;;;;;;;;;17.90;39.60;;;;;;5035036;28;19905;-70
2022/03/26 12:53:58;;;;;;;;;;;17.80;39.20;;;;;;5034662;28;19912;-70
2022/03/26 12:56:23;;;;;;;;;;;17.70;41.40;;;;;;5034879;28;19912;-70
2022/03/26 12:58:59;;;;;;;;;;;17.80;42.40;;;;;;5034572;28;19959;-70
2022/03/26 13:01:26;;;;;;;;;;;18.00;38.60;;;;;;5034318;28;20416;-70
2022/03/26 13:03:51;;;;;;;;;;;18.00;41.20;;;;;;5034789;28;19956;-70
2022/03/26 13:06:18;;;;;;;;;;;18.10;41.20;;;;;;5034479;28;19909;-71
2022/03/26 13:08:51;;;;;;;;;;;18.10;42.70;;;;;;5049767;28;19905;-70
2022/03/26 13:11:17;;;;;;;;;;;18.20;41.00;;;;;;5035274;28;20289;-71
2022/03/26 13:13:47;;;;;;;;;;;18.10;38.70;;;;;;5034309;28;19996;-71
2022/03/26 13:16:14;;;;;;;;;;;18.10;38.80;;;;;;5033944;28;19992;-70
2022/03/26 13:18:41;;;;;;;;;;;18.20;39.70;;;;;;5049490;28;19913;-71
2022/03/26 13:21:07;;;;;;;;;;;18.30;43.00;;;;;;5034210;28;19912;-71
2022/03/26 13:23:32;;;;;;;;;;;18.30;39.80;;;;;;5034217;28;19905;-71
2022/03/26 13:25:58;;;;;;;;;;;18.50;45.30;;;;;;5049392;28;20288;-71
2022/03/26 13:28:31;;;;;;;;;;;18.70;40.40;;;;;;5034120;28;19915;-70
2022/03/26 13:30:56;;;;;;;;;;;18.70;39.90;;;;;;5033947;28;19905;-70
2022/03/26 13:33:23;;;;;;;;;;;18.80;39.20;;;;;;5033963;28;19912;-70
2022/03/26 13:35:57;;;;;;;;;;;18.70;39.20;;;;;;5034011;28;19992;-71
2022/03/26 13:38:36;;;;;;;;;;;18.70;38.60;;;;;;5034179;28;19996;-71
2022/03/26 13:41:18;;;;;;;;;;;18.70;37.80;;;;;;5050344;28;19905;-71
2022/03/26 13:43:44;;;;;;;;;;;18.80;35.80;;;;;;5033937;28;19915;-71
2022/03/26 13:46:11;;;;;;;;;;;18.80;36.10;;;;;;5033684;28;19905;-72
2022/03/26 13:48:50;;;;;;;;;;;18.80;34.60;;;;;;5033877;28;19956;-71
2022/03/26 13:51:16;;;;;;;;;;;18.60;33.50;;;;;;5033861;28;19935;-70
2022/03/26 13:53:42;;;;;;;;;;;18.70;34.90;;;;;;5033838;28;20273;-71
2022/03/26 13:56:08;;;;;;;;;;;18.90;37.40;;;;;;5033783;28;20345;-71
2022/03/26 13:58:34;;;;;;;;;;;19.00;32.50;;;;;;5033690;28;19913;-70
2022/03/26 14:01:04;;;;;;;;;;;19.20;35.60;;;;;;5033448;28;19941;-71
2022/03/26 14:03:34;;;;;;;;;;;19.40;34.00;;;;;;5049028;28;19945;-71
2022/03/26 14:06:00;;;;;;;;;;;19.40;35.00;;;;;;5049947;28;19906;-71
2022/03/26 14:08:25;;;;;;;;;;;19.40;36.20;;;;;;5033896;28;19912;-70
2022/03/26 14:10:51;;;;;;;;;;;19.50;36.60;;;;;;5033920;28;19905;-71
2022/03/26 14:13:17;;;;;;;;;;;19.50;36.40;;;;;;5033481;28;20357;-71
2022/03/26 14:15:50;;;;;;;;;;;19.40;36.40;;;;;;5033521;28;19905;-70
2022/03/26 14:18:18;;;;;;;;;;;19.30;37.50;;;;;;5033782;28;19959;-71
2022/03/26 14:20:44;;;;;;;;;;;19.30;37.10;;;;;;5033838;28;20361;-70
2022/03/26 14:23:10;;;;;;;;;;;19.20;38.40;;;;;;5033432;28;19912;-70
2022/03/26 14:25:37;;;;;;;;;;;19.30;35.80;;;;;;5033432;28;20261;-70
2022/03/26 14:28:04;;;;;;;;;;;19.30;36.50;;;;;;5033913;28;19999;-70
2022/03/26 14:30:31;;;;;;;;;;;19.30;37.40;;;;;;5037318;28;19905;-70
2022/03/26 14:32:59;;;;;;;;;;;19.20;38.40;;;;;;5037280;28;19996;-70